No.3tokuyomaru — JD3132 — position and weather

sailwx.info

Track history (hours):
 
Tides and Currents Weather Stations Pressure Air Temp Water Temp Dewpoint Dewpoint Depression Visibility Wind Speed Wind Dir Waves Ship Positions

No.3tokuyomaru

Last reported at 2017-Jan-19 05:24 UTC. Time now 2017-Jan-21 08:45 UTC.
Position N 35°08' E 139°43'.

Length 67 m; draft 4.6 m.

Type: Tanker. MMSI: 431002151.

Date/timePositionNaut miles runAvg speedWind from/ knotsBaromVisibWave heightAir tempDewpointWater temp
2017-Jan-19 05:24N 35°08' E 139°43'1011.8
2017-Jan-19 04:31N 35°18' E 139°43'1111.7
2017-Jan-19 03:33N 35°29' E 139°47'2 1.5
2017-Jan-19 02:19N 35°31' E 139°46'0 0.0
2017-Jan-19 01:31N 35°31' E 139°46'0 0.0
2017-Jan-19 00:31N 35°31' E 139°46'0 0.0
2017-Jan-18 23:31N 35°31' E 139°46'0 0.0
2017-Jan-18 22:25N 35°31' E 139°46'3 3.1
2017-Jan-18 21:33N 35°29' E 139°49'0 0.0
2017-Jan-18 20:33N 35°29' E 139°49'0 0.0
2017-Jan-18 19:33N 35°29' E 139°49'0 0.0
2017-Jan-18 18:33N 35°29' E 139°49'0 0.0
2017-Jan-18 17:33N 35°29' E 139°49'0 0.0
2017-Jan-18 16:33N 35°29' E 139°49'0 0.0
2017-Jan-18 15:33N 35°29' E 139°49'0 0.1
2017-Jan-18 14:33N 35°29' E 139°49'0 0.0
2017-Jan-18 13:33N 35°29' E 139°49'0 0.1
2017-Jan-18 12:33N 35°29' E 139°49'0 0.0
2017-Jan-18 11:33N 35°29' E 139°49'0 0.1
2017-Jan-18 10:34N 35°29' E 139°49'1111.1
2017-Jan-18 09:34N 35°19' E 139°44'11 0.2
2017-Jan-16 08:12N 35°08' E 139°45'1111.7
2017-Jan-16 07:15N 35°19' E 139°43'811.3
2017-Jan-16 06:34N 35°27' E 139°45'4 3.3
2017-Jan-16 05:21N 35°31' E 139°46'0 0.0
2017-Jan-16 04:15N 35°31' E 139°46'0 0.0
2017-Jan-16 03:33N 35°31' E 139°46'0 0.0
2017-Jan-16 02:33N 35°31' E 139°46'0 0.0
2017-Jan-16 01:24N 35°31' E 139°46'0 0.0
2017-Jan-16 00:30N 35°31' E 139°46'2 1.6
2017-Jan-15 23:33N 35°29' E 139°47'1 0.7
2017-Jan-15 22:31N 35°29' E 139°46'0 0.0
2017-Jan-15 21:31N 35°29' E 139°46'0 0.0
2017-Jan-15 20:31N 35°29' E 139°46'0 0.0
2017-Jan-15 19:31N 35°29' E 139°46'0 0.0
2017-Jan-15 18:31N 35°29' E 139°46'0 0.0
2017-Jan-15 17:31N 35°29' E 139°46'0 0.0
2017-Jan-15 16:31N 35°29' E 139°46'0 0.0
2017-Jan-15 15:31N 35°29' E 139°46'0 0.1
2017-Jan-15 14:31N 35°29' E 139°46'0 0.0
2017-Jan-15 13:31N 35°29' E 139°46'0 0.0
2017-Jan-15 12:31N 35°29' E 139°46'0 0.0
2017-Jan-15 11:22N 35°29' E 139°46'0 0.1
2017-Jan-15 10:31N 35°29' E 139°46'0 0.0
2017-Jan-15 09:31N 35°29' E 139°46'0 0.0
2017-Jan-15 08:31N 35°29' E 139°46'0 0.0
2017-Jan-15 07:31N 35°29' E 139°46'0 0.0
2017-Jan-15 06:31N 35°29' E 139°46'0 0.0
2017-Jan-15 05:31N 35°29' E 139°46'0 0.0
2017-Jan-15 04:31N 35°29' E 139°46'0 0.1
2017-Jan-15 03:31N 35°29' E 139°46'0 0.0
2017-Jan-15 02:31N 35°29' E 139°46'0 0.0
2017-Jan-15 01:31N 35°29' E 139°46'0 0.1
2017-Jan-15 00:31N 35°29' E 139°46'0 0.0
2017-Jan-14 23:31N 35°29' E 139°46'0 0.0
2017-Jan-14 22:31N 35°29' E 139°46'0 0.0
2017-Jan-14 21:31N 35°29' E 139°46'0 0.0
2017-Jan-14 20:31N 35°29' E 139°46'0 0.0
2017-Jan-14 19:31N 35°29' E 139°46'0 0.0
2017-Jan-14 18:30N 35°29' E 139°46'0 0.0
2017-Jan-14 17:31N 35°29' E 139°46'0 0.0
2017-Jan-14 16:31N 35°29' E 139°46'0 0.0
2017-Jan-14 15:34N 35°29' E 139°46'1 0.9
2017-Jan-14 14:34N 35°28' E 139°46'1111.2
2017-Jan-14 13:34N 35°17' E 139°46'  
2017-Jan-12 08:20N 35°09' E 139°45'1111.3
2017-Jan-12 07:22N 35°20' E 139°43'911.1
2017-Jan-12 06:33N 35°28' E 139°48'3 2.7
2017-Jan-12 05:22N 35°31' E 139°46'0 0.0
2017-Jan-12 03:28N 35°31' E 139°46'0 0.0
2017-Jan-12 02:31N 35°31' E 139°46'0 0.0
2017-Jan-12 00:16N 35°31' E 139°46'3 0.5
2017-Jan-11 19:28N 35°29' E 139°49'4 4.0
2017-Jan-11 18:33N 35°26' E 139°47'1212.2
2017-Jan-11 17:33N 35°14' E 139°47'5 0.1
2017-Jan-09 15:07N 35°09' E 139°45'712.1
2017-Jan-09 14:30N 35°16' E 139°46'1010.4
2017-Jan-09 13:33N 35°26' E 139°45'4 4.2
2017-Jan-09 12:31N 35°29' E 139°49'0 0.0
2017-Jan-09 11:31N 35°29' E 139°49'0 0.0
2017-Jan-09 10:31N 35°29' E 139°49'0 0.0
2017-Jan-09 09:31N 35°29' E 139°49'0 0.1
2017-Jan-09 08:31N 35°29' E 139°49'0 0.0
2017-Jan-09 07:31N 35°29' E 139°49'0 0.0
2017-Jan-09 06:31N 35°29' E 139°49'0 0.1
2017-Jan-09 05:31N 35°29' E 139°49'  
Track history (hours):
 
Tides and Currents Weather Stations Pressure Air Temp Water Temp Dewpoint Dewpoint Depression Visibility Wind Speed Wind Dir Waves Ship Positions

No.3tokuyomaru

Last reported at 2017-Jan-19 05:24 UTC. Time now 2017-Jan-21 08:45 UTC.
Position N 35°08' E 139°43'.

Length 67 m; draft 4.6 m.

Type: Tanker. MMSI: 431002151.

Date/timePositionNaut miles runAvg speedWind from/ knotsBaromVisibWave heightAir tempDewpointWater temp
2017-Jan-19 05:24N 35°08' E 139°43'1011.8
2017-Jan-19 04:31N 35°18' E 139°43'1111.7
2017-Jan-19 03:33N 35°29' E 139°47'2 1.5
2017-Jan-19 02:19N 35°31' E 139°46'0 0.0
2017-Jan-19 01:31N 35°31' E 139°46'0 0.0
2017-Jan-19 00:31N 35°31' E 139°46'0 0.0
2017-Jan-18 23:31N 35°31' E 139°46'0 0.0
2017-Jan-18 22:25N 35°31' E 139°46'3 3.1
2017-Jan-18 21:33N 35°29' E 139°49'0 0.0
2017-Jan-18 20:33N 35°29' E 139°49'0 0.0
2017-Jan-18 19:33N 35°29' E 139°49'0 0.0
2017-Jan-18 18:33N 35°29' E 139°49'0 0.0
2017-Jan-18 17:33N 35°29' E 139°49'0 0.0
2017-Jan-18 16:33N 35°29' E 139°49'0 0.0
2017-Jan-18 15:33N 35°29' E 139°49'0 0.1
2017-Jan-18 14:33N 35°29' E 139°49'0 0.0
2017-Jan-18 13:33N 35°29' E 139°49'0 0.1
2017-Jan-18 12:33N 35°29' E 139°49'0 0.0
2017-Jan-18 11:33N 35°29' E 139°49'0 0.1
2017-Jan-18 10:34N 35°29' E 139°49'1111.1
2017-Jan-18 09:34N 35°19' E 139°44'11 0.2
2017-Jan-16 08:12N 35°08' E 139°45'1111.7
2017-Jan-16 07:15N 35°19' E 139°43'811.3
2017-Jan-16 06:34N 35°27' E 139°45'4 3.3
2017-Jan-16 05:21N 35°31' E 139°46'0 0.0
2017-Jan-16 04:15N 35°31' E 139°46'0 0.0
2017-Jan-16 03:33N 35°31' E 139°46'0 0.0
2017-Jan-16 02:33N 35°31' E 139°46'0 0.0
2017-Jan-16 01:24N 35°31' E 139°46'0 0.0
2017-Jan-16 00:30N 35°31' E 139°46'2 1.6
2017-Jan-15 23:33N 35°29' E 139°47'1 0.7
2017-Jan-15 22:31N 35°29' E 139°46'0 0.0
2017-Jan-15 21:31N 35°29' E 139°46'0 0.0
2017-Jan-15 20:31N 35°29' E 139°46'0 0.0
2017-Jan-15 19:31N 35°29' E 139°46'0 0.0
2017-Jan-15 18:31N 35°29' E 139°46'0 0.0
2017-Jan-15 17:31N 35°29' E 139°46'0 0.0
2017-Jan-15 16:31N 35°29' E 139°46'0 0.0
2017-Jan-15 15:31N 35°29' E 139°46'0 0.1
2017-Jan-15 14:31N 35°29' E 139°46'0 0.0
2017-Jan-15 13:31N 35°29' E 139°46'0 0.0
2017-Jan-15 12:31N 35°29' E 139°46'0 0.0
2017-Jan-15 11:22N 35°29' E 139°46'0 0.1
2017-Jan-15 10:31N 35°29' E 139°46'0 0.0
2017-Jan-15 09:31N 35°29' E 139°46'0 0.0
2017-Jan-15 08:31N 35°29' E 139°46'0 0.0
2017-Jan-15 07:31N 35°29' E 139°46'0 0.0
2017-Jan-15 06:31N 35°29' E 139°46'0 0.0
2017-Jan-15 05:31N 35°29' E 139°46'0 0.0
2017-Jan-15 04:31N 35°29' E 139°46'0 0.1
2017-Jan-15 03:31N 35°29' E 139°46'0 0.0
2017-Jan-15 02:31N 35°29' E 139°46'0 0.0
2017-Jan-15 01:31N 35°29' E 139°46'0 0.1
2017-Jan-15 00:31N 35°29' E 139°46'0 0.0
2017-Jan-14 23:31N 35°29' E 139°46'0 0.0
2017-Jan-14 22:31N 35°29' E 139°46'0 0.0
2017-Jan-14 21:31N 35°29' E 139°46'0 0.0
2017-Jan-14 20:31N 35°29' E 139°46'0 0.0
2017-Jan-14 19:31N 35°29' E 139°46'0 0.0
2017-Jan-14 18:30N 35°29' E 139°46'0 0.0
2017-Jan-14 17:31N 35°29' E 139°46'0 0.0
2017-Jan-14 16:31N 35°29' E 139°46'0 0.0
2017-Jan-14 15:34N 35°29' E 139°46'1 0.9
2017-Jan-14 14:34N 35°28' E 139°46'1111.2
2017-Jan-14 13:34N 35°17' E 139°46'  
2017-Jan-12 08:20N 35°09' E 139°45'1111.3
2017-Jan-12 07:22N 35°20' E 139°43'911.1
2017-Jan-12 06:33N 35°28' E 139°48'3 2.7
2017-Jan-12 05:22N 35°31' E 139°46'0 0.0
2017-Jan-12 03:28N 35°31' E 139°46'0 0.0
2017-Jan-12 02:31N 35°31' E 139°46'0 0.0
2017-Jan-12 00:16N 35°31' E 139°46'3 0.5
2017-Jan-11 19:28N 35°29' E 139°49'4 4.0
2017-Jan-11 18:33N 35°26' E 139°47'1212.2
2017-Jan-11 17:33N 35°14' E 139°47'5 0.1
2017-Jan-09 15:07N 35°09' E 139°45'712.1
2017-Jan-09 14:30N 35°16' E 139°46'1010.4
2017-Jan-09 13:33N 35°26' E 139°45'4 4.2
2017-Jan-09 12:31N 35°29' E 139°49'0 0.0
2017-Jan-09 11:31N 35°29' E 139°49'0 0.0
2017-Jan-09 10:31N 35°29' E 139°49'0 0.0
2017-Jan-09 09:31N 35°29' E 139°49'0 0.1
2017-Jan-09 08:31N 35°29' E 139°49'0 0.0
2017-Jan-09 07:31N 35°29' E 139°49'0 0.0
2017-Jan-09 06:31N 35°29' E 139°49'0 0.1
2017-Jan-09 05:31N 35°29' E 139°49'  

Dump ship's entire track history